Time;durP1;ratioP1;P1;durP2;ratioP2;P2;SDS_P1;SDS_P2;PMS_P1;PMS_P2;Temp;Humidity;BMP_temperature;BMP_pressure;BME280_temperature;BME280_humidity;BME280_pressure;Samples;Min_cycle;Max_cycle;Signal;HPM_P1;HPM_P2
2024/01/01 00:00:18;;;;;;;42.72;26.08;;;7.50;70.40;;;2.67;100.00;94983.47;4992049;28;20025;-52
2024/01/01 00:02:44;;;;;;;38.30;23.40;;;7.50;70.40;;;2.64;100.00;94983.91;4983897;28;20054;-53
2024/01/01 00:05:11;;;;;;;35.42;21.83;;;7.50;70.30;;;2.62;100.00;94983.34;4984390;28;20046;-56
2024/01/01 00:07:37;;;;;;;32.08;19.35;;;7.50;70.30;;;2.59;100.00;94978.53;4983899;28;20504;-58
2024/01/01 00:10:05;;;;;;;30.17;18.52;;;7.50;70.30;;;2.63;100.00;94984.94;4989328;28;20091;-56
2024/01/01 00:12:33;;;;;;;27.20;17.65;;;7.50;70.30;;;2.61;100.00;94987.00;4981455;28;20064;-54
2024/01/01 00:14:59;;;;;;;25.85;15.68;;;7.50;70.30;;;2.61;100.00;94981.75;4987537;28;20045;-57
2024/01/01 00:17:25;;;;;;;25.08;16.70;;;7.40;70.20;;;2.61;100.00;94985.16;4986363;28;20464;-57
2024/01/01 00:19:51;;;;;;;27.90;15.25;;;7.40;70.20;;;2.56;100.00;94987.69;4986547;28;20412;-58
2024/01/01 00:22:17;;;;;;;23.85;16.02;;;7.40;70.10;;;2.52;100.00;94987.34;4988694;28;20041;-57
2024/01/01 00:24:43;;;;;;;23.33;14.43;;;7.40;70.10;;;2.50;100.00;94983.31;5020533;23;20057;-52
2024/01/01 00:27:09;;;;;;;21.88;13.85;;;7.30;70.10;;;2.47;100.00;94991.66;4990144;28;20033;-53
2024/01/01 00:29:35;;;;;;;23.13;13.27;;;7.30;70.10;;;2.44;100.00;94992.91;5006932;28;20048;-56
2024/01/01 00:32:02;;;;;;;20.42;12.65;;;7.30;70.10;;;2.40;100.00;94996.25;4989771;28;20072;-56
2024/01/01 00:34:27;;;;;;;21.40;13.63;;;7.20;70.10;;;2.40;100.00;94993.63;5005979;28;20472;-57
2024/01/01 00:36:53;;;;;;;19.27;12.23;;;7.20;70.20;;;2.41;100.00;94996.00;4991955;28;20071;-56
2024/01/01 00:39:19;;;;;;;22.35;12.73;;;7.20;70.30;;;2.40;100.00;95002.31;4989583;28;20029;-58
2024/01/01 00:41:46;;;;;;;20.73;12.35;;;7.20;70.30;;;2.44;100.00;95003.44;4990295;28;20037;-55
2024/01/01 00:44:12;;;;;;;20.25;11.75;;;7.30;70.40;;;2.48;100.00;94996.72;4991269;28;20030;-56
2024/01/01 00:46:37;;;;;;;18.10;10.70;;;7.30;70.40;;;2.52;100.00;94992.59;4991828;28;20017;-58
2024/01/01 00:49:03;;;;;;;15.40;9.93;;;7.30;70.40;;;2.56;100.00;94990.31;4991466;28;20095;-58
2024/01/01 00:51:29;;;;;;;17.40;10.05;;;7.40;70.40;;;2.59;100.00;94986.44;4990481;28;20419;-54
2024/01/01 00:53:55;;;;;;;13.85;9.05;;;7.40;70.30;;;2.57;100.00;94984.03;4991263;28;20025;-57
2024/01/01 00:56:21;;;;;;;14.55;8.68;;;7.40;70.20;;;2.57;100.00;94975.31;4989948;28;20017;-54
2024/01/01 00:58:47;;;;;;;13.98;7.90;;;7.40;70.10;;;2.57;100.00;94977.97;4989814;28;20029;-57
2024/01/01 01:01:13;;;;;;;12.38;7.28;;;7.40;70.00;;;2.52;100.00;94973.41;4991415;28;20014;-55
2024/01/01 01:03:39;;;;;;;12.77;7.80;;;7.40;70.00;;;2.51;100.00;94977.06;4990122;28;20033;-57
2024/01/01 01:06:05;;;;;;;13.20;8.55;;;7.40;69.90;;;2.49;100.00;94976.47;4989485;28;20045;-59
2024/01/01 01:08:31;;;;;;;14.65;8.57;;;7.30;69.70;;;2.44;100.00;94969.25;4989684;28;20022;-55
2024/01/01 01:10:57;;;;;;;17.58;9.98;;;7.30;69.60;;;2.38;100.00;94964.91;4995770;28;20052;-56
2024/01/01 01:13:23;;;;;;;20.10;11.13;;;7.30;69.60;;;2.29;100.00;94961.06;4990812;28;20072;-57
2024/01/01 01:15:49;;;;;;;19.88;11.20;;;7.20;69.40;;;2.20;100.00;94965.84;4989555;28;20109;-58
2024/01/01 01:18:16;;;;;;;20.20;11.77;;;7.10;69.30;;;2.12;100.00;94958.28;4989836;28;20550;-55
2024/01/01 01:20:42;;;;;;;17.15;10.48;;;7.10;69.30;;;2.01;100.00;94948.56;4977161;28;20069;-57
2024/01/01 01:23:08;;;;;;;15.93;9.75;;;7.00;69.20;;;1.84;100.00;94958.91;4989270;28;20038;-54
2024/01/01 01:25:35;;;;;;;17.58;10.57;;;6.90;69.10;;;1.75;100.00;94952.38;4990442;28;20053;-57
2024/01/01 01:28:03;;;;;;;18.40;10.88;;;6.80;69.00;;;1.59;100.00;94959.84;4989281;28;20037;-56
2024/01/01 01:30:29;;;;;;;20.23;11.40;;;6.70;68.80;;;1.45;100.00;94961.06;4990926;28;20117;-58
2024/01/01 01:32:55;;;;;;;21.88;12.38;;;6.60;68.80;;;1.32;100.00;94956.81;5004921;28;20060;-54
2024/01/01 01:35:21;;;;;;;23.58;13.30;;;6.50;68.80;;;1.20;100.00;94963.81;4989242;28;20030;-57
2024/01/01 01:37:48;;;;;;;21.77;12.38;;;6.40;68.80;;;1.12;100.00;94962.28;4990677;28;20377;-57
2024/01/01 01:40:14;;;;;;;26.50;14.63;;;6.30;69.00;;;1.12;100.00;94962.28;4988480;28;20022;-56
2024/01/01 01:42:44;;;;;;;29.08;14.63;;;6.20;69.20;;;1.08;100.00;94960.34;4990862;28;20029;-58
2024/01/01 01:45:10;;;;;;;27.83;14.73;;;6.10;69.40;;;1.07;100.00;94966.59;4989633;28;20025;-57
2024/01/01 01:47:36;;;;;;;23.65;13.00;;;6.10;69.50;;;1.00;100.00;94960.63;4990625;28;20113;-58
2024/01/01 01:50:04;;;;;;;27.75;15.00;;;6.10;69.60;;;1.02;100.00;94966.47;4989361;28;20038;-58
2024/01/01 01:52:30;;;;;;;26.45;13.88;;;6.10;69.70;;;0.99;100.00;94967.69;4989138;28;20029;-53
2024/01/01 01:54:57;;;;;;;23.85;12.63;;;6.00;69.70;;;0.98;100.00;94968.72;4989961;28;20108;-57
2024/01/01 01:57:24;;;;;;;25.20;14.85;;;6.00;70.00;;;0.98;100.00;94973.16;4989842;28;20054;-58
2024/01/01 01:59:51;;;;;;;25.23;14.27;;;6.00;70.10;;;0.92;100.00;94986.13;4989579;28;20018;-59
2024/01/01 02:02:22;;;;;;;25.20;13.93;;;5.90;69.90;;;0.92;100.00;94982.72;4989898;28;20029;-57
2024/01/01 02:04:50;;;;;;;23.23;13.23;;;5.90;70.80;;;0.92;100.00;94977.47;5004286;28;20036;-55
2024/01/01 02:07:16;;;;;;;25.50;14.73;;;5.90;70.10;;;0.93;100.00;94984.31;4990871;28;20026;-57
2024/01/01 02:09:42;;;;;;;25.70;11.82;;;6.00;70.30;;;0.97;100.00;94984.66;4989634;28;20025;-56
2024/01/01 02:12:08;;;;;;;22.27;12.32;;;6.00;70.40;;;1.06;100.00;94988.59;4989744;28;20108;-58
2024/01/01 02:14:35;;;;;;;21.58;11.18;;;6.10;70.60;;;1.18;100.00;94993.91;4984241;28;20510;-57
2024/01/01 02:17:01;;;;;;;16.60;9.88;;;6.10;70.90;;;1.30;100.00;94990.31;4989529;28;20475;-57
2024/01/01 02:19:28;;;;;;;17.95;9.65;;;6.20;71.10;;;1.38;100.00;94992.66;4990515;28;20364;-58
2024/01/01 02:21:58;;;;;;;15.75;9.48;;;6.30;71.20;;;1.50;100.00;95005.03;4989562;28;20029;-55
2024/01/01 02:24:24;;;;;;;17.10;8.05;;;6.40;71.30;;;1.64;100.00;95003.03;4989903;28;20399;-57
2024/01/01 02:26:50;;;;;;;11.13;6.90;;;6.50;71.50;;;1.78;100.00;94999.19;4989069;28;20028;-59
2024/01/01 02:29:17;;;;;;;12.75;7.10;;;6.60;71.60;;;1.89;100.00;95001.06;4990527;28;20109;-56
2024/01/01 02:31:44;;;;;;;11.95;6.68;;;6.70;71.60;;;2.01;100.00;95012.41;4990503;28;20121;-58
2024/01/01 02:34:10;;;;;;;10.05;6.38;;;6.80;71.50;;;2.11;100.00;95011.06;4986853;28;20032;-57
2024/01/01 02:36:39;;;;;;;8.70;5.80;;;6.90;71.40;;;2.18;100.00;95017.81;4991055;28;20018;-58
2024/01/01 02:39:07;;;;;;;12.95;6.00;;;6.90;72.00;;;2.25;100.00;95023.75;4992703;28;20029;-58
2024/01/01 02:41:35;;;;;;;12.43;6.60;;;7.00;71.10;;;2.32;100.00;95026.31;4992310;28;20025;-58
2024/01/01 02:44:03;;;;;;;13.43;6.50;;;7.10;71.10;;;2.36;100.00;95016.94;4991952;28;20025;-53
2024/01/01 02:46:29;;;;;;;8.85;5.55;;;7.20;71.00;;;2.36;100.00;95016.13;4993125;28;20026;-57
2024/01/01 02:48:56;;;;;;;15.10;6.80;;;7.20;70.90;;;2.40;100.00;95025.16;4993249;28;20025;-55
2024/01/01 02:51:22;;;;;;;10.43;5.97;;;7.20;70.70;;;2.41;100.00;95011.78;4992658;28;20105;-56
2024/01/01 02:53:48;;;;;;;9.50;4.80;;;7.20;70.80;;;2.45;100.00;95015.56;4994004;28;20041;-57
2024/01/01 02:56:25;;;;;;;8.73;4.97;;;7.20;70.80;;;2.46;100.00;95014.53;4992304;28;20030;-56
2024/01/01 02:58:53;;;;;;;9.63;5.70;;;7.20;70.90;;;2.49;100.00;95015.91;4992808;28;20492;-56
2024/01/01 03:01:19;;;;;;;12.68;5.50;;;7.20;71.00;;;2.51;100.00;95019.13;4994196;28;20041;-56
2024/01/01 03:03:45;;;;;;;9.85;5.00;;;7.20;71.00;;;2.51;100.00;95029.66;4992623;28;20037;-57
2024/01/01 03:06:10;;;;;;;8.38;4.45;;;7.20;71.00;;;2.52;100.00;95039.91;4993450;28;20025;-58
2024/01/01 03:08:37;;;;;;;8.15;4.00;;;7.20;71.10;;;2.51;100.00;95040.97;4992685;28;20052;-58
2024/01/01 03:11:07;;;;;;;7.70;3.70;;;7.30;71.30;;;2.53;100.00;95049.41;4993547;28;20089;-55
2024/01/01 03:13:33;;;;;;;7.57;3.20;;;7.30;71.50;;;2.57;100.00;95047.16;4992203;28;20041;-53
2024/01/01 03:16:02;;;;;;;7.47;3.53;;;7.20;71.70;;;2.61;100.00;95056.19;4991273;28;20111;-53
2024/01/01 03:18:28;;;;;;;6.53;2.35;;;7.20;71.80;;;2.49;100.00;95047.47;4992228;28;20045;-56
2024/01/01 03:20:55;;;;;;;4.40;2.00;;;7.20;72.00;;;2.44;100.00;95028.94;4992471;28;20464;-58
2024/01/01 03:23:21;;;;;;;5.88;2.22;;;7.20;72.00;;;2.44;100.00;95037.63;4991719;28;20558;-54
2024/01/01 03:25:47;;;;;;;8.95;2.83;;;7.10;72.00;;;2.42;100.00;95039.69;4992369;28;20045;-56
2024/01/01 03:28:13;;;;;;;4.72;2.38;;;7.10;72.10;;;2.40;100.00;95039.09;4988465;28;20021;-53
2024/01/01 03:30:39;;;;;;;5.50;2.70;;;7.10;72.10;;;2.38;100.00;95038.53;4986096;28;20014;-56
2024/01/01 03:33:05;;;;;;;7.32;3.05;;;7.10;72.20;;;2.39;100.00;95039.34;4992265;28;20025;-56
2024/01/01 03:35:31;;;;;;;6.63;2.90;;;7.10;72.80;;;2.41;100.00;95045.16;4993085;28;20025;-55
2024/01/01 03:38:03;;;;;;;8.50;2.58;;;7.10;72.40;;;2.41;100.00;95040.69;4992998;28;20045;-58
2024/01/01 03:40:30;;;;;;;5.65;3.10;;;7.10;72.60;;;2.43;100.00;95049.16;4989641;28;20459;-55
2024/01/01 03:42:56;;;;;;;9.20;3.25;;;7.10;72.50;;;2.44;100.00;95044.69;4993423;28;20249;-57
2024/01/01 03:45:22;;;;;;;7.03;3.00;;;7.10;72.50;;;2.44;100.00;95039.44;4992226;28;20025;-55
2024/01/01 03:47:48;;;;;;;6.75;3.42;;;7.10;72.60;;;2.47;100.00;95031.09;5007806;28;20052;-54
2024/01/01 03:50:16;;;;;;;7.43;3.03;;;7.10;72.60;;;2.48;100.00;95043.25;4991630;28;20033;-54
2024/01/01 03:52:42;;;;;;;8.30;3.38;;;7.10;72.60;;;2.48;100.00;95032.72;4990306;28;20025;-52
2024/01/01 03:55:08;;;;;;;5.90;3.45;;;7.20;72.80;;;2.46;100.00;95047.91;4992046;28;20034;-54
2024/01/01 03:57:34;;;;;;;10.85;3.63;;;7.20;72.80;;;2.51;100.00;95040.16;4991880;28;20029;-57
2024/01/01 04:00:00;;;;;;;9.43;3.60;;;7.20;72.80;;;2.52;100.00;95037.28;4992956;28;20091;-54
2024/01/01 04:02:26;;;;;;;7.05;3.60;;;7.20;72.80;;;2.51;100.00;95045.41;4991693;28;20135;-56
2024/01/01 04:04:52;;;;;;;6.25;3.17;;;7.20;72.80;;;2.55;100.00;95049.19;4992237;28;20034;-58
2024/01/01 04:07:18;;;;;;;9.55;3.65;;;7.20;72.70;;;2.48;100.00;95041.41;4992774;28;20605;-55
2024/01/01 04:09:44;;;;;;;8.82;3.22;;;7.20;72.60;;;2.46;100.00;95061.84;4991682;28;20056;-56
2024/01/01 04:12:10;;;;;;;7.97;3.67;;;7.20;72.70;;;2.49;100.00;95056.16;4992554;28;20018;-55
2024/01/01 04:14:36;;;;;;;10.23;4.43;;;7.20;72.80;;;2.48;100.00;95059.81;4991309;28;20022;-58
2024/01/01 04:17:06;;;;;;;8.25;3.67;;;7.30;72.80;;;2.49;100.00;95056.16;4991318;28;20424;-56
2024/01/01 04:19:31;;;;;;;7.10;3.45;;;7.30;72.90;;;2.51;100.00;95063.81;4992745;28;20571;-55
2024/01/01 04:21:57;;;;;;;6.15;3.30;;;7.30;72.90;;;2.57;100.00;95059.47;4991607;28;20116;-55
2024/01/01 04:24:23;;;;;;;6.63;3.58;;;7.30;72.90;;;2.58;100.00;95064.50;4991659;28;20052;-55
2024/01/01 04:26:49;;;;;;;6.68;3.72;;;7.30;73.00;;;2.62;100.00;95064.84;4993263;28;20456;-56
2024/01/01 04:29:16;;;;;;;9.27;3.40;;;7.30;72.90;;;2.61;100.00;95064.06;4992429;28;20029;-54
2024/01/01 04:31:44;;;;;;;6.80;3.60;;;7.30;72.90;;;2.59;100.00;95060.06;4992642;28;20376;-55
2024/01/01 04:34:10;;;;;;;10.07;3.45;;;7.30;72.90;;;2.62;100.00;95063.03;4982155;28;20133;-59
2024/01/01 04:36:38;;;;;;;5.93;3.30;;;7.30;72.80;;;2.61;100.00;95066.69;4990288;28;20052;-58
2024/01/01 04:39:04;;;;;;;8.35;3.22;;;7.40;72.80;;;2.63;100.00;95064.63;4989827;28;20044;-59
2024/01/01 04:41:30;;;;;;;5.72;2.90;;;7.40;72.80;;;2.65;100.00;95057.31;4991714;28;20104;-55
2024/01/01 04:43:56;;;;;;;5.68;2.97;;;7.40;72.70;;;2.62;100.00;95057.75;4992116;28;20454;-59
2024/01/01 04:46:24;;;;;;;6.53;3.25;;;7.30;72.60;;;2.58;100.00;95061.09;4991120;28;20061;-58
2024/01/01 04:48:50;;;;;;;4.88;2.80;;;7.40;72.60;;;2.55;100.00;95057.06;4991581;28;20481;-59
2024/01/01 04:51:16;;;;;;;4.40;2.85;;;7.30;72.50;;;2.53;100.00;95061.75;4989672;28;20106;-56
2024/01/01 04:53:41;;;;;;;6.82;2.92;;;7.30;72.40;;;2.46;100.00;95064.50;4991645;28;20049;-57
2024/01/01 04:56:07;;;;;;;6.05;3.03;;;7.20;72.40;;;2.48;100.00;95074.78;4990856;28;20037;-54
2024/01/01 04:58:34;;;;;;;8.68;3.00;;;7.20;72.50;;;2.48;100.00;95080.06;4989796;28;20028;-56
2024/01/01 05:01:00;;;;;;;7.15;2.83;;;7.20;72.40;;;2.46;100.00;95072.38;4991495;28;20057;-57
2024/01/01 05:03:26;;;;;;;6.28;2.97;;;7.20;72.60;;;2.47;100.00;95075.81;4983743;28;20026;-57
2024/01/01 05:05:52;;;;;;;5.55;2.30;;;7.20;72.60;;;2.45;100.00;95077.88;4991045;28;20032;-58
2024/01/01 05:08:18;;;;;;;5.85;2.83;;;7.20;72.60;;;2.44;100.00;95081.50;4983684;28;20033;-58
2024/01/01 05:10:44;;;;;;;6.03;2.30;;;7.10;72.60;;;2.48;100.00;95078.22;4991419;28;20024;-53
2024/01/01 05:13:09;;;;;;;5.60;2.60;;;7.20;72.70;;;2.49;100.00;95081.66;4990560;28;20159;-56
2024/01/01 05:15:36;;;;;;;5.13;2.50;;;7.20;72.70;;;2.54;100.00;95081.78;4990101;28;20450;-54
2024/01/01 05:18:01;;;;;;;6.15;2.42;;;7.20;72.90;;;2.60;100.00;95095.81;4991121;28;20030;-55
2024/01/01 05:20:27;;;;;;;5.03;2.13;;;7.20;72.90;;;2.62;100.00;95085.91;4989932;28;20475;-55
2024/01/01 05:22:53;;;;;;;5.35;2.50;;;7.30;72.90;;;2.63;100.00;95090.13;4991113;28;20072;-57
2024/01/01 05:25:19;;;;;;;7.50;2.45;;;7.30;72.70;;;2.64;100.00;95089.91;4990804;28;20512;-58
2024/01/01 05:27:45;;;;;;;2.75;1.63;;;7.30;72.70;;;2.65;100.00;95088.88;4989873;28;20021;-56
2024/01/01 05:30:11;;;;;;;2.75;2.10;;;7.30;72.60;;;2.67;100.00;95094.72;4991507;28;20037;-54
2024/01/01 05:32:37;;;;;;;4.30;1.98;;;7.40;72.60;;;2.70;100.00;95101.34;4990067;28;20014;-56
2024/01/01 05:35:05;;;;;;;4.10;2.08;;;7.40;72.60;;;2.70;100.00;95099.53;4990448;28;20775;-54
2024/01/01 05:37:30;;;;;;;7.20;2.15;;;7.40;72.50;;;2.70;100.00;95102.16;4991104;28;20101;-57
2024/01/01 05:39:56;;;;;;;5.97;2.05;;;7.40;72.40;;;2.69;100.00;95099.72;4983195;28;20224;-57
2024/01/01 05:42:22;;;;;;;3.53;2.00;;;7.40;72.40;;;2.72;100.00;95107.16;4993942;28;20273;-57
2024/01/01 05:44:48;;;;;;;3.67;1.58;;;7.50;72.40;;;2.72;100.00;95102.72;4981654;28;20037;-55
2024/01/01 05:47:14;;;;;;;3.40;2.13;;;7.50;72.30;;;2.74;100.00;95098.03;4979735;28;20116;-56
2024/01/01 05:49:40;;;;;;;5.60;2.03;;;7.50;72.20;;;2.74;100.00;95099.88;4976252;28;20027;-55
2024/01/01 05:52:05;;;;;;;3.47;1.85;;;7.60;72.20;;;2.75;100.00;95098.81;4980569;28;20021;-55
2024/01/01 05:54:31;;;;;;;6.55;1.73;;;7.50;72.10;;;2.75;100.00;95098.81;4980278;28;20095;-56
2024/01/01 05:56:57;;;;;;;7.47;2.10;;;7.60;72.10;;;2.74;100.00;95098.03;4978566;28;20080;-56
2024/01/01 05:59:23;;;;;;;4.03;1.83;;;7.50;72.00;;;2.76;100.00;95096.00;4961282;28;20044;-55
2024/01/01 06:01:49;;;;;;;4.15;1.90;;;7.60;72.00;;;2.73;100.00;95098.28;4977873;28;20014;-57
2024/01/01 06:04:14;;;;;;;6.00;2.20;;;7.60;72.00;;;2.74;100.00;95097.22;4980971;28;20038;-53
2024/01/01 06:06:40;;;;;;;6.50;2.20;;;7.60;72.00;;;2.75;100.00;95104.88;4982624;28;20025;-56
2024/01/01 06:09:06;;;;;;;6.30;2.38;;;7.60;71.90;;;2.77;100.00;95091.53;4978268;28;20026;-53
2024/01/01 06:11:33;;;;;;;6.47;2.45;;;7.60;71.90;;;2.80;100.00;95098.16;4981031;28;20638;-57
2024/01/01 06:13:59;;;;;;;5.47;2.10;;;7.60;71.90;;;2.82;100.00;95099.53;4981333;28;20063;-57
2024/01/01 06:16:25;;;;;;;4.65;1.75;;;7.70;72.00;;;2.85;100.00;95093.81;4984209;28;20025;-57
2024/01/01 06:18:51;;;;;;;6.93;2.00;;;7.70;71.90;;;2.89;100.00;95091.53;4983334;28;20392;-55
2024/01/01 06:21:17;;;;;;;5.80;2.22;;;7.70;71.80;;;2.90;100.00;95095.75;4986655;28;20022;-57
2024/01/01 06:23:46;;;;;;;4.72;1.88;;;7.70;71.80;;;2.93;100.00;95097.94;4980797;28;20108;-56
2024/01/01 06:26:13;;;;;;;4.55;1.73;;;7.80;71.80;;;2.95;100.00;95093.25;4980562;28;20038;-56
2024/01/01 06:28:40;;;;;;;2.17;1.70;;;7.80;71.70;;;3.00;100.00;95104.69;4998160;23;20064;-57
2024/01/01 06:31:05;;;;;;;4.25;1.98;;;7.80;71.60;;;3.00;100.00;95099.41;4982351;28;20038;-56
2024/01/01 06:33:31;;;;;;;4.15;1.80;;;7.80;71.60;;;3.01;100.00;95098.41;4983407;28;20025;-57
2024/01/01 06:35:57;;;;;;;7.30;1.95;;;7.80;71.50;;;3.07;100.00;95103.75;4996990;28;20080;-56
2024/01/01 06:38:23;;;;;;;5.20;2.28;;;7.90;71.50;;;3.10;100.00;95103.31;4982487;28;23317;-57
2024/01/01 06:40:49;;;;;;;4.97;1.65;;;7.90;71.40;;;3.11;100.00;95104.94;4985201;28;20034;-55
2024/01/01 06:43:14;;;;;;;5.82;2.22;;;7.90;71.40;;;3.08;100.00;95103.56;4982667;28;20435;-54
2024/01/01 06:45:40;;;;;;;4.05;1.70;;;7.90;71.30;;;3.11;100.00;95100.47;4985702;28;20036;-54
2024/01/01 06:48:11;;;;;;;4.00;1.83;;;7.90;71.20;;;3.16;100.00;95108.44;4983714;28;20036;-55
2024/01/01 06:50:37;;;;;;;4.10;1.73;;;7.90;71.20;;;3.20;100.00;95103.56;4982941;28;20064;-54
2024/01/01 06:53:04;;;;;;;4.68;1.83;;;7.90;71.10;;;3.19;100.00;95100.09;4984410;28;20120;-56
2024/01/01 06:55:30;;;;;;;3.60;1.63;;;8.00;71.10;;;3.20;100.00;95120.16;4984796;28;20046;-59
2024/01/01 06:57:59;;;;;;;4.10;1.90;;;8.00;71.00;;;3.20;100.00;95114.88;4983380;28;20033;-56
2024/01/01 07:00:25;;;;;;;5.45;1.80;;;8.00;70.90;;;3.19;100.00;95118.53;4981473;28;20079;-58
2024/01/01 07:02:52;;;;;;;3.20;1.60;;;8.00;70.90;;;3.18;100.00;95124.03;4985011;28;20037;-56
2024/01/01 07:05:17;;;;;;;5.93;2.15;;;8.00;70.70;;;3.21;100.00;95118.31;4980148;28;20113;-57
2024/01/01 07:07:43;;;;;;;5.43;1.70;;;8.00;70.60;;;3.23;100.00;95132.06;4981788;28;20112;-57
2024/01/01 07:10:09;;;;;;;4.03;1.95;;;8.00;70.60;;;3.19;100.00;95129.06;4984915;28;20440;-57
2024/01/01 07:12:35;;;;;;;3.28;1.40;;;8.00;70.50;;;3.18;100.00;95134.56;4983407;28;20061;-56
2024/01/01 07:15:01;;;;;;;4.95;1.60;;;8.00;70.40;;;3.13;100.00;95131.81;4983400;28;20037;-58
2024/01/01 07:17:27;;;;;;;2.58;1.65;;;8.00;70.30;;;3.13;100.00;95145.75;4986205;28;20105;-54
2024/01/01 07:19:53;;;;;;;3.58;1.80;;;8.00;70.40;;;3.13;100.00;95143.13;4980581;28;20033;-57
2024/01/01 07:22:19;;;;;;;6.53;1.75;;;8.00;70.30;;;3.13;100.00;95150.22;4983179;28;20036;-57
2024/01/01 07:24:45;;;;;;;4.22;1.40;;;8.00;70.40;;;3.15;100.00;95148.97;4981657;28;20477;-56
2024/01/01 07:27:11;;;;;;;4.65;1.85;;;8.00;70.30;;;3.21;100.00;95155.16;4983828;28;20036;-55
2024/01/01 07:29:39;;;;;;;4.28;1.40;;;8.00;70.30;;;3.21;100.00;95163.84;4979540;28;20551;-56
2024/01/01 07:32:06;;;;;;;3.88;1.23;;;8.00;70.20;;;3.25;100.00;95158.94;4981308;28;20033;-57
2024/01/01 07:34:32;;;;;;;3.03;1.30;;;8.00;70.20;;;3.24;100.00;95152.88;4983037;28;20033;-54
2024/01/01 07:36:58;;;;;;;3.28;1.60;;;8.10;70.20;;;3.28;100.00;95166.38;4983057;28;20032;-57
2024/01/01 07:39:25;;;;;;;4.70;1.48;;;8.10;70.10;;;3.29;100.00;95156.63;4979454;28;20018;-56
2024/01/01 07:41:51;;;;;;;4.95;1.85;;;8.10;70.00;;;3.27;100.00;95154.25;4980757;28;20018;-59
2024/01/01 07:44:17;;;;;;;3.08;1.48;;;8.10;69.90;;;3.28;100.00;95155.03;4981145;28;20055;-57
2024/01/01 07:46:44;;;;;;;4.85;1.48;;;8.20;70.70;;;3.24;100.00;95160.75;4981893;28;20604;-55
2024/01/01 07:49:09;;;;;;;6.38;1.38;;;8.20;69.90;;;3.27;100.00;95156.88;4983290;28;20037;-55
2024/01/01 07:51:36;;;;;;;1.85;1.17;;;8.20;69.80;;;3.32;100.00;95154.38;4983125;28;20022;-56
2024/01/01 07:54:02;;;;;;;4.90;1.13;;;8.20;69.60;;;3.36;100.00;95149.44;4985671;28;20548;-58
2024/01/01 07:56:30;;;;;;;4.65;1.20;;;8.30;69.60;;;3.42;100.00;95151.97;4979826;28;20060;-55
2024/01/01 07:58:57;;;;;;;3.00;1.30;;;8.30;69.30;;;3.46;100.00;95153.09;4979826;28;20034;-55
2024/01/01 08:01:24;;;;;;;3.47;1.30;;;8.30;69.20;;;3.51;100.00;95151.59;4978797;28;20032;-58
2024/01/01 08:03:50;;;;;;;1.55;1.08;;;8.40;69.00;;;3.53;100.00;95145.06;4981176;28;20029;-59
2024/01/01 08:06:20;;;;;;;5.10;1.42;;;8.40;68.90;;;3.55;100.00;95152.75;4982970;28;20029;-55
2024/01/01 08:08:46;;;;;;;2.10;1.00;;;8.40;68.90;;;3.59;100.00;95159.16;4980070;28;20036;-59
2024/01/01 08:11:12;;;;;;;5.60;1.33;;;8.50;68.80;;;3.62;100.00;95153.44;4982903;28;20028;-60
2024/01/01 08:13:37;;;;;;;3.90;1.23;;;8.50;68.60;;;3.67;100.00;95156.97;4980269;28;20029;-58
2024/01/01 08:16:04;;;;;;;6.45;1.20;;;8.60;68.60;;;3.72;100.00;95157.06;4983597;28;20481;-57
2024/01/01 08:18:30;;;;;;;2.40;0.93;;;8.60;68.50;;;3.78;100.00;95160.63;4982923;28;20026;-57
2024/01/01 08:20:55;;;;;;;3.42;1.10;;;8.70;68.30;;;3.85;100.00;95163.91;4982182;28;20071;-58
2024/01/01 08:23:21;;;;;;;3.03;0.95;;;8.80;68.10;;;3.89;98.83;95159.00;4980384;28;20038;-56
2024/01/01 08:25:47;;;;;;;1.80;1.10;;;8.90;67.60;;;4.00;100.00;95157.38;4980488;28;20096;-55
2024/01/01 08:28:13;;;;;;;1.95;1.10;;;9.00;67.50;;;4.04;98.46;95155.84;4981231;28;20038;-57
2024/01/01 08:30:39;;;;;;;4.82;1.30;;;9.10;67.30;;;4.13;98.88;95157.09;4978980;28;20033;-58
2024/01/01 08:33:06;;;;;;;3.30;1.00;;;9.20;66.90;;;4.20;97.17;95144.59;4982731;28;20044;-57
2024/01/01 08:35:32;;;;;;;5.07;1.23;;;9.30;66.50;;;4.28;96.09;95151.31;4980006;28;20368;-59
2024/01/01 08:37:58;;;;;;;2.00;0.95;;;9.50;66.30;;;4.36;97.43;95159.66;4980958;28;20029;-54
2024/01/01 08:40:24;;;;;;;4.10;1.30;;;9.50;66.10;;;4.35;96.70;95165.16;4981414;28;20022;-56
2024/01/01 08:42:51;;;;;;;2.72;1.23;;;9.60;65.90;;;4.37;97.27;95169.16;4981847;28;20065;-60
2024/01/01 08:45:19;;;;;;;3.15;1.15;;;9.60;65.90;;;4.43;96.77;95175.34;4981961;28;20052;-55
2024/01/01 08:47:46;;;;;;;6.13;1.05;;;9.60;65.50;;;4.38;96.21;95188.41;4981767;28;20040;-57
2024/01/01 08:50:14;;;;;;;3.05;1.17;;;9.70;65.40;;;4.40;95.86;95184.50;4997218;28;20076;-57
2024/01/01 08:52:42;;;;;;;2.42;0.93;;;9.70;65.10;;;4.50;97.00;95185.75;4982207;28;20048;-59
2024/01/01 08:55:09;;;;;;;4.65;1.20;;;9.70;65.00;;;4.52;96.44;95186.31;4983158;28;20432;-58
2024/01/01 08:57:35;;;;;;;1.98;0.80;;;9.70;65.00;;;4.52;94.89;95196.88;4982629;28;20038;-59
2024/01/01 09:00:03;;;;;;;1.25;0.82;;;9.80;65.00;;;4.54;95.39;95205.31;4982987;28;20033;-59
2024/01/01 09:02:29;;;;;;;2.70;0.88;;;9.80;64.80;;;4.54;94.86;95210.59;4982662;28;20037;-58
2024/01/01 09:04:54;;;;;;;2.63;0.88;;;9.80;64.70;;;4.54;94.34;95208.75;4981151;28;20034;-58
2024/01/01 09:07:20;;;;;;;1.98;0.80;;;9.80;64.60;;;4.63;94.85;95207.34;4980444;28;20029;-59
2024/01/01 09:09:46;;;;;;;2.83;0.88;;;9.90;64.50;;;4.68;94.72;95206.66;4981942;28;20488;-58
2024/01/01 09:12:12;;;;;;;2.30;0.80;;;10.00;64.20;;;4.68;91.98;95195.31;4981988;28;20042;-58
2024/01/01 09:14:38;;;;;;;3.05;0.95;;;10.10;63.70;;;4.79;92.98;95200.50;4982209;28;20040;-59
2024/01/01 09:17:07;;;;;;;2.08;0.77;;;10.20;63.30;;;4.86;92.66;95200.38;4983259;28;20105;-59
2024/01/01 09:19:34;;;;;;;3.88;1.15;;;10.30;64.00;;;4.92;91.50;95201.25;4980494;28;20033;-59
2024/01/01 09:22:00;;;;;;;2.33;0.95;;;10.30;62.90;;;4.95;90.07;95201.59;4980836;28;20569;-59
2024/01/01 09:24:26;;;;;;;4.15;0.90;;;10.30;62.80;;;4.98;90.79;95208.22;4981669;28;20033;-56
2024/01/01 09:26:52;;;;;;;2.30;0.80;;;10.40;62.70;;;5.04;91.52;95209.91;4979245;28;20400;-59
2024/01/01 09:29:18;;;;;;;3.17;0.88;;;10.40;62.70;;;5.04;90.69;95212.53;4981661;28;20056;-56
2024/01/01 09:31:44;;;;;;;1.38;0.70;;;10.40;62.50;;;5.07;90.56;95218.16;4979612;28;20164;-58
2024/01/01 09:34:09;;;;;;;3.25;0.95;;;10.40;62.50;;;5.03;90.14;95219.66;4974910;28;20030;-59
2024/01/01 09:36:35;;;;;;;2.15;0.98;;;10.40;62.30;;;5.04;90.06;95209.91;4980016;28;20471;-59
2024/01/01 09:39:01;;;;;;;5.75;0.80;;;10.50;62.10;;;5.07;88.84;95209.44;4980081;28;20043;-56
2024/01/01 09:41:27;;;;;;;2.63;1.02;;;10.50;61.70;;;5.16;89.96;95210.63;4975033;28;20022;-56
2024/01/01 09:43:56;;;;;;;2.90;0.75;;;10.60;61.60;;;5.28;88.89;95219.28;4977818;28;20030;-58
2024/01/01 09:46:23;;;;;;;1.52;1.00;;;10.70;61.50;;;5.37;87.90;95203.84;4984910;28;20053;-59
2024/01/01 09:48:50;;;;;;;3.58;1.00;;;10.80;61.30;;;5.40;88.08;95218.44;4989308;28;20032;-57
2024/01/01 09:51:15;;;;;;;1.80;0.70;;;10.90;61.20;;;5.47;87.66;95219.06;4985591;28;20032;-58
2024/01/01 09:53:45;;;;;;;1.50;0.88;;;10.90;61.00;;;5.56;88.59;95228.97;4987160;28;20034;-57
2024/01/01 09:56:12;;;;;;;3.22;0.95;;;11.00;61.00;;;5.53;87.83;95226.03;4983956;28;20108;-57
2024/01/01 09:58:45;;;;;;;2.60;0.80;;;11.00;60.70;;;5.48;86.52;95226.72;4984487;28;20041;-56
2024/01/01 10:01:16;;;;;;;3.80;1.00;;;11.10;60.20;;;5.48;86.49;95223.28;4986231;28;20025;-56
2024/01/01 10:03:42;;;;;;;2.60;0.82;;;11.10;59.80;;;5.49;85.55;95212.50;4986863;28;20088;-55
2024/01/01 10:06:12;;;;;;;2.58;0.90;;;11.10;59.70;;;5.59;88.02;95232.97;4985895;28;20029;-55
2024/01/01 10:08:39;;;;;;;3.78;1.05;;;11.10;59.80;;;5.67;86.85;95223.84;4969668;28;20026;-59
2024/01/01 10:11:20;;;;;;;2.05;0.95;;;11.20;59.80;;;5.74;85.82;95225.28;4986623;28;20029;-55
2024/01/01 10:13:50;;;;;;;3.60;0.90;;;11.30;59.70;;;5.69;85.57;95222.56;5002371;28;20025;-59
2024/01/01 10:16:28;;;;;;;1.38;0.80;;;11.30;59.60;;;5.63;85.62;95217.44;4984445;28;20034;-59
2024/01/01 10:18:58;;;;;;;3.17;0.90;;;11.40;59.00;;;5.68;86.19;95220.16;4986115;28;20049;-54